createdAt,value
2019-06-07T00:00:38.293Z,0.00
2019-06-07T00:01:28.735Z,0.00
2019-06-07T00:02:27.732Z,0.00
2019-06-07T00:03:30.287Z,0.00
2019-06-07T00:04:27.719Z,0.00
2019-06-07T00:05:27.718Z,0.00
2019-06-07T00:06:27.702Z,0.00
2019-06-07T00:07:27.675Z,0.00
2019-06-07T00:08:29.242Z,0.00
2019-06-07T00:09:27.652Z,0.00
2019-06-07T00:10:36.443Z,0.00
2019-06-07T00:11:28.643Z,0.00
2019-06-07T00:12:27.619Z,0.00
2019-06-07T00:13:27.605Z,0.00
2019-06-07T00:14:27.596Z,0.00
2019-06-07T00:15:29.003Z,0.00
2019-06-07T00:16:27.584Z,0.00
2019-06-07T00:17:27.579Z,0.00
2019-06-07T00:18:27.547Z,0.00
2019-06-07T00:19:27.536Z,0.00
2019-06-07T00:20:27.525Z,0.00
2019-06-07T00:22:12.636Z,0.00
2019-06-07T00:22:33.081Z,0.00
2019-06-07T00:23:28.529Z,0.00
2019-06-07T00:24:27.479Z,0.00
2019-06-07T00:25:27.467Z,0.00
2019-06-07T00:26:27.464Z,0.00
2019-06-07T00:27:27.451Z,0.00
2019-06-07T00:28:27.463Z,0.00
2019-06-07T00:29:27.427Z,0.00
2019-06-07T00:30:43.724Z,0.00
2019-06-07T00:31:28.399Z,0.00
2019-06-07T00:32:27.392Z,0.00
2019-06-07T00:33:27.415Z,0.00
2019-06-07T00:34:27.384Z,0.00
2019-06-07T00:35:27.363Z,0.00
2019-06-07T00:36:27.352Z,0.00
2019-06-07T00:37:27.337Z,0.00
2019-06-07T00:38:27.326Z,0.00
2019-06-07T00:39:27.382Z,0.00
2019-06-07T00:40:31.754Z,0.00
2019-06-07T00:41:28.298Z,0.00
2019-06-07T00:42:27.279Z,0.00
2019-06-07T00:43:28.608Z,0.00
2019-06-07T00:44:27.259Z,0.00
2019-06-07T00:45:27.260Z,0.00
2019-06-07T00:46:27.267Z,0.00
2019-06-07T00:47:27.223Z,0.00
2019-06-07T00:48:32.334Z,0.00
2019-06-07T00:49:40.603Z,0.00
2019-06-07T00:50:28.192Z,0.00
2019-06-07T00:51:27.184Z,0.00
2019-06-07T00:53:13.845Z,0.00
2019-06-07T00:53:32.183Z,0.00
2019-06-07T00:54:27.203Z,0.00
2019-06-07T00:55:27.721Z,0.00
2019-06-07T00:56:27.130Z,0.00
2019-06-07T00:57:27.119Z,0.00
2019-06-07T00:58:29.313Z,0.00
2019-06-07T00:59:29.486Z,0.00
2019-06-07T01:00:27.084Z,0.00
2019-06-07T01:01:27.079Z,0.00
2019-06-07T01:02:31.172Z,0.00
2019-06-07T01:03:27.071Z,0.00
2019-06-07T01:04:27.257Z,0.00
2019-06-07T01:05:31.406Z,0.00
2019-06-07T01:06:27.035Z,0.00
2019-06-07T01:07:27.018Z,0.00
2019-06-07T01:08:29.942Z,0.00
2019-06-07T01:09:26.979Z,0.00
2019-06-07T01:10:51.793Z,0.00
2019-06-07T01:11:27.959Z,0.00
2019-06-07T01:12:27.282Z,0.00
2019-06-07T01:13:27.178Z,0.00
2019-06-07T01:14:28.502Z,0.00
2019-06-07T01:15:29.001Z,0.00
2019-06-07T01:16:26.904Z,0.00
2019-06-07T01:17:39.220Z,0.00
2019-06-07T01:18:39.078Z,0.00
2019-06-07T01:19:28.147Z,0.00
2019-06-07T01:20:27.008Z,0.00
2019-06-07T01:21:29.439Z,0.00
2019-06-07T01:22:29.012Z,0.00
2019-06-07T01:24:28.193Z,0.00
2019-06-07T01:25:28.909Z,0.00
2019-06-07T01:26:29.835Z,0.00
2019-06-07T01:27:26.783Z,0.00
2019-06-07T01:28:27.762Z,0.00
2019-06-07T01:29:29.492Z,0.00
2019-06-07T01:30:26.867Z,0.00
2019-06-07T01:31:28.487Z,0.00
2019-06-07T01:32:27.911Z,0.00
2019-06-07T01:33:46.445Z,0.00
2019-06-07T01:34:28.945Z,0.00
2019-06-07T01:35:26.753Z,0.00
2019-06-07T01:36:29.551Z,0.00
2019-06-07T01:37:29.696Z,0.00
2019-06-07T01:38:26.929Z,0.00
2019-06-07T01:39:29.802Z,0.00
2019-06-07T01:40:30.404Z,0.00
2019-06-07T01:41:30.147Z,0.00
2019-06-07T01:42:29.417Z,0.00
2019-06-07T01:43:28.704Z,0.00
2019-06-07T01:44:28.031Z,0.00
2019-06-07T01:45:30.606Z,0.00
2019-06-07T01:46:26.845Z,0.00
2019-06-07T01:47:31.244Z,0.00
2019-06-07T01:48:46.203Z,0.00
2019-06-07T01:49:29.541Z,0.00
2019-06-07T01:50:27.040Z,0.00
2019-06-07T01:51:27.867Z,0.00
2019-06-07T01:52:26.751Z,0.00
2019-06-07T01:53:28.498Z,0.00
2019-06-07T01:54:52.234Z,0.00
2019-06-07T01:55:32.237Z,0.00
2019-06-07T01:56:29.598Z,0.00
2019-06-07T01:57:39.817Z,0.00
2019-06-07T01:58:29.210Z,0.00
2019-06-07T01:59:28.465Z,0.00
2019-06-07T02:00:31.464Z,0.00
2019-06-07T02:01:34.709Z,0.00
2019-06-07T02:02:30.055Z,0.00
2019-06-07T02:03:30.111Z,0.00
2019-06-07T02:04:32.028Z,0.00
2019-06-07T02:05:30.883Z,0.00
2019-06-07T02:06:29.702Z,0.00
2019-06-07T02:07:30.368Z,0.00
2019-06-07T02:08:33.574Z,0.00
2019-06-07T02:09:29.884Z,0.00
2019-06-07T02:10:29.980Z,0.00
2019-06-07T02:11:29.394Z,0.00
2019-06-07T02:12:34.660Z,0.00
2019-06-07T02:13:28.719Z,0.00
2019-06-07T02:14:29.582Z,0.00
2019-06-07T02:15:30.694Z,0.00
2019-06-07T02:16:30.373Z,0.00
2019-06-07T02:17:30.159Z,0.00
2019-06-07T02:18:29.154Z,0.00
2019-06-07T02:19:31.149Z,0.00
2019-06-07T02:20:33.510Z,0.00
2019-06-07T02:21:30.439Z,0.00
2019-06-07T02:22:29.354Z,0.00
2019-06-07T02:23:30.347Z,0.00
2019-06-07T02:24:28.818Z,0.00
2019-06-07T02:25:38.414Z,0.00
2019-06-07T02:26:29.937Z,0.00
2019-06-07T02:27:27.491Z,0.00
2019-06-07T02:28:34.673Z,0.00
2019-06-07T02:29:30.219Z,0.00
2019-06-07T02:30:53.367Z,0.00
2019-06-07T02:31:28.666Z,0.00
2019-06-07T02:32:29.737Z,0.00
2019-06-07T02:33:33.541Z,0.00
2019-06-07T02:34:28.210Z,0.00
2019-06-07T02:35:38.744Z,0.00
2019-06-07T02:36:30.505Z,0.00
2019-06-07T02:37:31.614Z,0.00
2019-06-07T02:38:29.375Z,0.00
2019-06-07T02:39:28.772Z,4.00
2019-06-07T02:40:28.007Z,4.00
2019-06-07T02:41:33.344Z,4.00
2019-06-07T02:42:30.810Z,4.00
2019-06-07T02:43:28.210Z,0.00
2019-06-07T02:44:30.624Z,4.00
2019-06-07T02:45:29.916Z,4.00
2019-06-07T02:46:36.218Z,4.00
2019-06-07T02:47:28.698Z,4.00
2019-06-07T02:48:28.029Z,4.00
2019-06-07T02:49:31.380Z,4.00
2019-06-07T02:50:29.185Z,8.00
2019-06-07T02:51:32.673Z,4.00
2019-06-07T02:52:29.336Z,8.00
2019-06-07T02:53:27.700Z,8.00
2019-06-07T02:54:27.428Z,12.00
2019-06-07T02:55:28.985Z,8.00
2019-06-07T02:56:39.164Z,8.00
2019-06-07T02:57:29.307Z,12.00
2019-06-07T02:58:31.120Z,12.00
2019-06-07T02:59:54.971Z,16.00
2019-06-07T03:00:51.414Z,16.00
2019-06-07T03:01:28.568Z,20.00
2019-06-07T03:02:30.919Z,20.00
2019-06-07T03:03:30.025Z,20.00
2019-06-07T03:04:27.246Z,24.00
2019-06-07T03:05:27.297Z,24.00
2019-06-07T03:06:29.824Z,28.00
2019-06-07T03:07:28.280Z,32.00
2019-06-07T03:08:25.854Z,32.00
2019-06-07T03:09:26.357Z,36.00
2019-06-07T03:10:28.565Z,40.00
2019-06-07T03:11:25.836Z,44.00
2019-06-07T03:12:26.583Z,44.00
2019-06-07T03:13:28.884Z,48.00
2019-06-07T03:14:25.994Z,52.00
2019-06-07T03:15:35.451Z,56.00
2019-06-07T03:16:26.572Z,56.00
2019-06-07T03:17:27.101Z,60.00
2019-06-07T03:18:28.623Z,68.00
2019-06-07T03:19:26.398Z,68.00
2019-06-07T03:20:27.400Z,76.00
2019-06-07T03:21:29.106Z,80.00
2019-06-07T03:22:26.726Z,84.00
2019-06-07T03:23:26.348Z,88.00
2019-06-07T03:24:29.564Z,96.00
2019-06-07T03:25:25.758Z,104.00
2019-06-07T03:26:27.444Z,104.00
2019-06-07T03:27:40.675Z,112.00
2019-06-07T03:28:27.579Z,116.00
2019-06-07T03:29:28.531Z,124.00
2019-06-07T03:31:00.407Z,128.00
2019-06-07T03:31:28.436Z,132.00
2019-06-07T03:32:29.219Z,136.00
2019-06-07T03:33:26.864Z,144.00
2019-06-07T03:34:25.364Z,152.00
2019-06-07T03:35:27.598Z,160.00
2019-06-07T03:36:25.998Z,164.00
2019-06-07T03:37:27.448Z,172.00
2019-06-07T03:38:27.564Z,176.00
2019-06-07T03:39:26.480Z,184.00
2019-06-07T03:40:25.299Z,188.00
2019-06-07T03:41:25.287Z,196.00
2019-06-07T03:42:25.281Z,204.00
2019-06-07T03:43:25.287Z,208.00
2019-06-07T03:44:25.315Z,216.00
2019-06-07T03:45:25.266Z,220.00
2019-06-07T03:46:25.236Z,224.00
2019-06-07T03:47:25.219Z,236.00
2019-06-07T03:48:25.251Z,240.00
2019-06-07T03:49:25.195Z,248.00
2019-06-07T03:50:25.208Z,256.00
2019-06-07T03:51:27.012Z,256.00
2019-06-07T03:52:25.165Z,264.00
2019-06-07T03:53:25.155Z,272.00
2019-06-07T03:54:25.158Z,280.00
2019-06-07T03:55:25.153Z,288.00
2019-06-07T03:56:25.123Z,296.00
2019-06-07T03:57:25.140Z,304.00
2019-06-07T03:58:38.029Z,316.00
2019-06-07T03:59:28.254Z,324.00
2019-06-07T04:00:25.072Z,332.00
2019-06-07T04:01:25.075Z,340.00
2019-06-07T04:02:25.055Z,348.00
2019-06-07T04:03:38.244Z,360.00
2019-06-07T04:04:26.048Z,364.00
2019-06-07T04:05:25.026Z,376.00
2019-06-07T04:06:25.059Z,384.00
2019-06-07T04:07:24.998Z,396.00
2019-06-07T04:08:25.002Z,404.00
2019-06-07T04:09:24.978Z,412.00
2019-06-07T04:10:44.761Z,428.00
2019-06-07T04:11:25.959Z,432.00
2019-06-07T04:12:24.950Z,444.00
2019-06-07T04:13:24.937Z,452.00
2019-06-07T04:14:24.921Z,460.00
2019-06-07T04:15:24.922Z,472.00
2019-06-07T04:16:24.925Z,476.00
2019-06-07T04:17:24.899Z,484.00
2019-06-07T04:18:24.877Z,492.00
2019-06-07T04:19:24.874Z,500.00
2019-06-07T04:20:24.915Z,508.00
2019-06-07T04:21:24.846Z,516.00
2019-06-07T04:22:24.833Z,520.00
2019-06-07T04:23:28.071Z,532.00
2019-06-07T04:24:25.810Z,536.00
2019-06-07T04:25:24.802Z,544.00
2019-06-07T04:26:24.800Z,548.00
2019-06-07T04:27:24.774Z,556.00
2019-06-07T04:29:16.500Z,564.00
2019-06-07T04:29:33.050Z,572.00
2019-06-07T04:30:25.733Z,580.00
2019-06-07T04:31:24.742Z,592.00
2019-06-07T04:32:24.718Z,596.00
2019-06-07T04:33:24.706Z,600.00
2019-06-07T04:34:24.706Z,604.00
2019-06-07T04:35:24.691Z,608.00
2019-06-07T04:36:41.822Z,604.00
2019-06-07T04:37:25.673Z,608.00
2019-06-07T04:38:24.658Z,608.00
2019-06-07T04:39:24.645Z,608.00
2019-06-07T04:40:24.664Z,604.00
2019-06-07T04:41:24.617Z,600.00
2019-06-07T04:42:24.621Z,596.00
2019-06-07T04:43:25.232Z,584.00
2019-06-07T04:44:24.585Z,584.00
2019-06-07T04:45:33.520Z,588.00
2019-06-07T04:46:25.574Z,596.00
2019-06-07T04:47:24.574Z,596.00
2019-06-07T04:48:24.562Z,600.00
2019-06-07T04:49:24.545Z,604.00
2019-06-07T04:50:24.522Z,616.00
2019-06-07T04:51:24.559Z,620.00
2019-06-07T04:52:24.495Z,620.00
2019-06-07T04:53:24.490Z,624.00
2019-06-07T04:54:24.490Z,632.00
2019-06-07T04:55:24.490Z,644.00
2019-06-07T04:56:24.449Z,656.00
2019-06-07T04:57:24.456Z,656.00
2019-06-07T04:58:24.429Z,656.00
2019-06-07T05:00:01.225Z,660.00
2019-06-07T05:00:49.007Z,664.00
2019-06-07T05:01:27.700Z,664.00
2019-06-07T05:02:24.406Z,668.00
2019-06-07T05:03:24.380Z,672.00
2019-06-07T05:04:24.366Z,672.00
2019-06-07T05:05:24.350Z,676.00
2019-06-07T05:06:24.377Z,688.00
2019-06-07T05:07:24.335Z,692.00
2019-06-07T05:08:28.434Z,696.00
2019-06-07T05:09:25.317Z,700.00
2019-06-07T05:10:24.298Z,700.00
2019-06-07T05:11:24.294Z,700.00
2019-06-07T05:12:24.305Z,704.00
2019-06-07T05:13:24.286Z,708.00
2019-06-07T05:14:24.249Z,712.00
2019-06-07T05:15:24.266Z,712.00
2019-06-07T05:16:24.238Z,720.00
2019-06-07T05:17:24.213Z,724.00
2019-06-07T05:18:24.212Z,728.00
2019-06-07T05:19:24.194Z,732.00
2019-06-07T05:20:24.198Z,740.00
2019-06-07T05:21:24.194Z,744.00
2019-06-07T05:22:24.178Z,752.00
2019-06-07T05:24:25.134Z,756.00
2019-06-07T05:25:24.125Z,760.00
2019-06-07T05:26:24.138Z,760.00
2019-06-07T05:27:24.100Z,768.00
2019-06-07T05:28:24.092Z,768.00
2019-06-07T05:29:24.089Z,772.00
2019-06-07T05:30:59.818Z,772.00
2019-06-07T05:31:25.084Z,780.00
2019-06-07T05:32:24.068Z,780.00
2019-06-07T05:33:24.036Z,788.00
2019-06-07T05:34:24.029Z,788.00
2019-06-07T05:35:24.040Z,792.00
2019-06-07T05:36:24.004Z,792.00
2019-06-07T05:37:24.008Z,788.00
2019-06-07T05:38:24.012Z,780.00
2019-06-07T05:39:23.976Z,780.00
2019-06-07T05:40:23.962Z,788.00
2019-06-07T05:41:23.951Z,792.00
2019-06-07T05:42:23.940Z,800.00
2019-06-07T05:43:23.949Z,816.00
2019-06-07T05:44:23.918Z,820.00
2019-06-07T05:45:23.952Z,828.00
2019-06-07T05:46:23.892Z,836.00
2019-06-07T05:47:23.949Z,836.00
2019-06-07T05:48:23.877Z,848.00
2019-06-07T05:49:23.884Z,856.00
2019-06-07T05:50:39.125Z,868.00
2019-06-07T05:51:24.864Z,880.00
2019-06-07T05:52:23.861Z,892.00
2019-06-07T05:53:23.828Z,908.00
2019-06-07T05:54:23.816Z,924.00
2019-06-07T05:55:23.815Z,932.00
2019-06-07T05:56:23.793Z,936.00
2019-06-07T05:57:23.788Z,948.00
2019-06-07T05:58:23.772Z,956.00
2019-06-07T05:59:23.748Z,972.00
2019-06-07T06:00:25.234Z,980.00
2019-06-07T06:01:42.724Z,984.00
2019-06-07T06:02:25.031Z,980.00
2019-06-07T06:03:23.705Z,976.00
2019-06-07T06:04:23.691Z,968.00
2019-06-07T06:05:33.910Z,952.00
2019-06-07T06:06:24.696Z,940.00
2019-06-07T06:07:23.651Z,952.00
2019-06-07T06:08:23.660Z,972.00
2019-06-07T06:09:23.636Z,960.00
2019-06-07T06:10:23.624Z,960.00
2019-06-07T06:11:42.691Z,972.00
2019-06-07T06:12:34.649Z,972.00
2019-06-07T06:13:24.596Z,964.00
2019-06-07T06:14:23.603Z,968.00
2019-06-07T06:15:41.488Z,964.00
2019-06-07T06:16:24.588Z,960.00
2019-06-07T06:17:23.541Z,960.00
2019-06-07T06:18:23.549Z,956.00
2019-06-07T06:19:23.532Z,956.00
2019-06-07T06:20:23.550Z,956.00
2019-06-07T06:21:23.504Z,960.00
2019-06-07T06:22:23.511Z,952.00
2019-06-07T06:23:23.544Z,952.00
2019-06-07T06:24:23.501Z,960.00
2019-06-07T06:25:33.653Z,960.00
2019-06-07T06:26:24.440Z,964.00
2019-06-07T06:28:02.521Z,964.00
2019-06-07T06:28:24.421Z,964.00
2019-06-07T06:29:23.432Z,960.00
2019-06-07T06:30:23.408Z,956.00
2019-06-07T06:31:23.391Z,960.00
2019-06-07T06:32:41.608Z,952.00
2019-06-07T06:33:33.676Z,960.00
2019-06-07T06:34:24.346Z,960.00
2019-06-07T06:35:23.340Z,964.00
2019-06-07T06:36:23.397Z,964.00
2019-06-07T06:37:23.358Z,964.00
2019-06-07T06:38:23.316Z,988.00
2019-06-07T06:39:23.303Z,972.00
2019-06-07T06:40:23.306Z,972.00
2019-06-07T06:41:23.292Z,972.00
2019-06-07T06:42:23.286Z,972.00
2019-06-07T06:43:23.247Z,976.00
2019-06-07T06:44:23.243Z,976.00
2019-06-07T06:45:23.237Z,980.00
2019-06-07T06:46:38.288Z,984.00
2019-06-07T06:47:24.220Z,980.00
2019-06-07T06:48:23.208Z,980.00
2019-06-07T06:49:23.218Z,988.00
2019-06-07T06:50:23.176Z,992.00
2019-06-07T06:51:23.161Z,996.00
2019-06-07T06:52:23.156Z,1000.00
2019-06-07T06:53:23.155Z,1000.00
2019-06-07T06:54:40.254Z,1000.00
2019-06-07T06:55:24.127Z,1004.00
2019-06-07T06:56:23.112Z,996.00
2019-06-07T06:57:23.161Z,1000.00
2019-06-07T06:58:23.088Z,1004.00
2019-06-07T06:59:40.888Z,1020.00
2019-06-07T07:00:43.183Z,1036.00
2019-06-07T07:01:24.048Z,1012.00
2019-06-07T07:02:23.047Z,984.00
2019-06-07T07:04:24.028Z,1004.00
2019-06-07T07:05:23.044Z,1016.00
2019-06-07T07:06:26.569Z,1048.00
2019-06-07T07:07:22.982Z,1056.00
2019-06-07T07:08:22.981Z,1076.00
2019-06-07T07:09:22.975Z,1076.00
2019-06-07T07:10:22.949Z,1100.00
2019-06-07T07:11:23.469Z,1120.00
2019-06-07T07:12:22.936Z,1136.00
2019-06-07T07:13:22.920Z,1092.00
2019-06-07T07:14:22.904Z,1096.00
2019-06-07T07:15:22.911Z,1112.00
2019-06-07T07:16:22.908Z,1096.00
2019-06-07T07:17:46.787Z,1160.00
2019-06-07T07:18:23.856Z,1212.00
2019-06-07T07:19:22.872Z,1232.00
2019-06-07T07:20:22.884Z,1252.00
2019-06-07T07:21:22.829Z,1224.00
2019-06-07T07:22:22.875Z,1292.00
2019-06-07T07:23:22.808Z,1232.00
2019-06-07T07:24:22.802Z,1216.00
2019-06-07T07:25:22.783Z,1220.00
2019-06-07T07:26:22.816Z,1232.00
2019-06-07T07:27:22.756Z,1200.00
2019-06-07T07:28:22.793Z,1176.00
2019-06-07T07:29:22.735Z,1184.00
2019-06-07T07:30:36.537Z,1224.00
2019-06-07T07:31:23.744Z,1224.00
2019-06-07T07:32:22.702Z,1220.00
2019-06-07T07:33:22.691Z,1268.00
2019-06-07T07:34:34.860Z,1268.00
2019-06-07T07:35:23.664Z,1188.00
2019-06-07T07:36:38.219Z,1156.00
2019-06-07T07:37:23.654Z,1172.00
2019-06-07T07:38:22.637Z,1192.00
2019-06-07T07:39:22.635Z,1240.00
2019-06-07T07:40:56.251Z,1312.00
2019-06-07T07:41:23.631Z,1308.00
2019-06-07T07:42:22.624Z,1288.00
2019-06-07T07:43:22.577Z,1236.00
2019-06-07T07:44:22.568Z,1276.00
2019-06-07T07:45:22.560Z,1276.00
2019-06-07T07:46:30.350Z,1388.00
2019-06-07T07:47:23.555Z,1416.00
2019-06-07T07:48:22.540Z,1400.00
2019-06-07T07:49:22.508Z,1360.00
2019-06-07T07:50:22.508Z,1372.00
2019-06-07T07:51:22.483Z,1528.00
2019-06-07T07:52:22.501Z,1488.00
2019-06-07T07:53:22.540Z,1616.00
2019-06-07T07:54:22.479Z,1624.00
2019-06-07T07:55:22.507Z,1636.00
2019-06-07T07:56:22.442Z,1652.00
2019-06-07T07:57:22.425Z,1772.00
2019-06-07T07:58:22.471Z,1896.00
2019-06-07T07:59:40.649Z,1900.00
2019-06-07T08:00:50.309Z,1988.00
2019-06-07T08:01:23.380Z,1816.00
2019-06-07T08:02:22.379Z,1680.00
2019-06-07T08:03:22.356Z,1488.00
2019-06-07T08:04:29.443Z,1684.00
2019-06-07T08:05:41.585Z,1684.00
2019-06-07T08:06:23.324Z,1480.00
2019-06-07T08:07:22.308Z,1604.00
2019-06-07T08:08:22.296Z,1772.00
2019-06-07T08:09:22.287Z,1900.00
2019-06-07T08:10:22.289Z,1956.00
2019-06-07T08:11:22.275Z,2324.00
2019-06-07T08:12:22.265Z,1912.00
2019-06-07T08:13:26.583Z,1924.00
2019-06-07T08:14:23.245Z,2044.00
2019-06-07T08:15:22.220Z,1896.00
2019-06-07T08:16:22.223Z,1904.00
2019-06-07T08:17:22.208Z,1804.00
2019-06-07T08:18:22.192Z,1732.00
2019-06-07T08:19:22.188Z,1788.00
2019-06-07T08:20:22.174Z,1804.00
2019-06-07T08:21:26.421Z,1876.00
2019-06-07T08:22:22.176Z,1988.00
2019-06-07T08:23:22.143Z,1872.00
2019-06-07T08:24:22.191Z,2196.00
2019-06-07T08:25:22.111Z,2036.00
2019-06-07T08:26:22.127Z,1968.00
2019-06-07T08:27:26.571Z,1916.00
2019-06-07T08:28:22.088Z,1864.00
2019-06-07T08:29:22.076Z,1972.00
2019-06-07T08:30:53.002Z,1920.00
2019-06-07T08:31:23.039Z,1836.00
2019-06-07T08:32:22.033Z,1848.00
2019-06-07T08:33:26.653Z,1992.00
2019-06-07T08:34:23.011Z,2080.00
2019-06-07T08:36:03.018Z,1932.00
2019-06-07T08:36:40.754Z,2148.00
2019-06-07T08:37:22.999Z,2000.00
2019-06-07T08:38:27.320Z,2060.00
2019-06-07T08:39:23.006Z,1988.00
2019-06-07T08:40:21.956Z,2164.00
2019-06-07T08:41:21.987Z,1568.00
2019-06-07T08:42:36.200Z,2088.00
2019-06-07T08:43:22.908Z,2168.00
2019-06-07T08:44:25.533Z,2152.00
2019-06-07T08:45:21.908Z,2036.00
2019-06-07T08:46:21.887Z,1540.00
2019-06-07T08:47:21.867Z,2000.00
2019-06-07T08:48:27.814Z,2072.00
2019-06-07T08:49:22.851Z,1956.00
2019-06-07T08:50:21.839Z,1988.00
2019-06-07T08:51:21.831Z,1888.00
2019-06-07T08:52:21.870Z,1924.00
2019-06-07T08:53:21.795Z,2040.00
2019-06-07T08:54:23.364Z,2008.00
2019-06-07T08:55:21.792Z,1948.00
2019-06-07T08:56:21.765Z,2004.00
2019-06-07T08:57:22.095Z,1972.00
2019-06-07T08:58:21.744Z,2036.00
2019-06-07T08:59:21.759Z,2124.00
2019-06-07T09:01:22.719Z,2092.00
2019-06-07T09:02:24.006Z,2040.00
2019-06-07T09:03:21.714Z,2120.00
2019-06-07T09:04:21.671Z,2092.00
2019-06-07T09:05:21.683Z,2100.00
2019-06-07T09:07:01.817Z,2116.00
2019-06-07T09:07:22.648Z,2128.00
2019-06-07T09:08:30.059Z,2168.00
2019-06-07T09:09:22.615Z,2160.00
2019-06-07T09:10:21.615Z,2140.00
2019-06-07T09:11:21.612Z,2180.00
2019-06-07T09:12:21.583Z,2180.00
2019-06-07T09:13:21.603Z,2072.00
2019-06-07T09:14:21.563Z,2220.00
2019-06-07T09:15:23.808Z,2304.00
2019-06-07T09:16:21.549Z,1832.00
2019-06-07T09:17:21.543Z,2272.00
2019-06-07T09:18:41.106Z,2464.00
2019-06-07T09:19:22.506Z,2432.00
2019-06-07T09:20:36.320Z,2404.00
2019-06-07T09:21:22.524Z,2416.00
2019-06-07T09:22:21.479Z,2420.00
2019-06-07T09:23:21.475Z,2392.00
2019-06-07T09:24:21.453Z,2408.00
2019-06-07T09:25:21.948Z,2432.00
2019-06-07T09:26:21.445Z,2420.00
2019-06-07T09:27:21.431Z,2476.00
2019-06-07T09:28:21.407Z,2504.00
2019-06-07T09:29:21.400Z,2588.00
2019-06-07T09:30:21.383Z,2584.00
2019-06-07T09:31:21.427Z,2616.00
2019-06-07T09:32:21.366Z,2516.00
2019-06-07T09:33:21.377Z,2540.00
2019-06-07T09:34:21.347Z,2408.00
2019-06-07T09:35:21.328Z,2488.00
2019-06-07T09:36:21.320Z,2504.00
2019-06-07T09:38:03.804Z,2508.00
2019-06-07T09:38:26.076Z,2428.00
2019-06-07T09:39:21.287Z,2564.00
2019-06-07T09:40:27.401Z,2564.00
2019-06-07T09:41:22.259Z,2420.00
2019-06-07T09:42:21.269Z,2620.00
2019-06-07T09:44:25.999Z,2584.00
2019-06-07T09:45:21.264Z,2580.00
2019-06-07T09:46:21.203Z,2576.00
2019-06-07T09:47:31.642Z,2608.00
2019-06-07T09:49:09.319Z,2584.00
2019-06-07T09:49:32.063Z,2716.00
2019-06-07T09:50:22.171Z,3112.00
2019-06-07T09:51:21.150Z,3116.00
2019-06-07T09:52:21.156Z,3136.00
2019-06-07T09:53:23.247Z,3052.00
2019-06-07T09:55:03.272Z,3052.00
2019-06-07T09:55:24.649Z,2988.00
2019-06-07T09:56:21.100Z,3064.00
2019-06-07T09:57:21.079Z,3080.00
2019-06-07T09:59:22.089Z,2860.00
2019-06-07T10:00:39.957Z,2700.00
2019-06-07T10:01:22.071Z,2720.00
2019-06-07T10:02:21.032Z,2604.00
2019-06-07T10:03:22.654Z,2700.00
2019-06-07T10:04:30.869Z,2676.00
2019-06-07T10:05:22.023Z,2664.00
2019-06-07T10:06:20.983Z,2716.00
2019-06-07T10:07:31.411Z,2624.00
2019-06-07T10:09:31.504Z,2488.00
2019-06-07T10:11:21.947Z,2792.00
2019-06-07T10:12:20.921Z,2740.00
2019-06-07T10:13:20.907Z,2792.00
2019-06-07T10:14:20.903Z,2844.00
2019-06-07T10:15:20.879Z,2844.00
2019-06-07T10:16:20.892Z,2844.00
2019-06-07T10:17:20.876Z,2848.00
2019-06-07T10:18:20.856Z,2860.00
2019-06-07T10:19:20.851Z,2832.00
2019-06-07T10:20:20.832Z,2948.00
2019-06-07T10:21:20.837Z,2860.00
2019-06-07T10:22:20.825Z,2240.00
2019-06-07T10:23:20.807Z,2996.00
2019-06-07T10:24:20.789Z,2988.00
2019-06-07T10:25:20.785Z,2840.00
2019-06-07T10:26:20.767Z,2824.00
2019-06-07T10:27:20.771Z,2824.00
2019-06-07T10:28:20.768Z,2800.00
2019-06-07T10:29:20.730Z,2804.00
2019-06-07T10:30:20.716Z,2816.00
2019-06-07T10:31:20.708Z,2804.00
2019-06-07T10:32:20.704Z,2760.00
2019-06-07T10:33:20.702Z,2828.00
2019-06-07T10:34:20.690Z,2724.00
2019-06-07T10:35:20.665Z,2780.00
2019-06-07T10:36:20.652Z,2852.00
2019-06-07T10:37:20.645Z,2844.00
2019-06-07T10:38:20.651Z,2824.00
2019-06-07T10:39:20.638Z,2864.00
2019-06-07T10:40:20.675Z,2884.00
2019-06-07T10:41:20.599Z,2904.00
2019-06-07T10:42:20.590Z,2840.00
2019-06-07T10:43:20.579Z,2888.00
2019-06-07T10:44:20.569Z,2888.00
2019-06-07T10:45:20.587Z,2884.00
2019-06-07T10:46:20.576Z,2900.00
2019-06-07T10:47:20.543Z,2904.00
2019-06-07T10:48:20.523Z,2976.00
2019-06-07T10:49:20.507Z,2944.00
2019-06-07T10:50:20.503Z,2980.00
2019-06-07T10:51:20.499Z,2960.00
2019-06-07T10:52:20.483Z,2968.00
2019-06-07T10:53:20.485Z,2616.00
2019-06-07T10:54:27.872Z,2912.00
2019-06-07T10:55:21.475Z,2964.00
2019-06-07T10:56:20.431Z,2972.00
2019-06-07T10:57:20.436Z,2956.00
2019-06-07T10:58:20.413Z,3008.00
2019-06-07T10:59:20.435Z,2940.00
2019-06-07T11:00:20.385Z,2896.00
2019-06-07T11:01:20.376Z,2880.00
2019-06-07T11:02:20.368Z,2920.00
2019-06-07T11:03:20.365Z,2920.00
2019-06-07T11:04:20.339Z,2904.00
2019-06-07T11:05:20.351Z,2912.00
2019-06-07T11:06:20.335Z,2924.00
2019-06-07T11:07:20.315Z,2912.00
2019-06-07T11:08:20.323Z,2916.00
2019-06-07T11:09:20.295Z,2956.00
2019-06-07T11:10:20.492Z,2940.00
2019-06-07T11:11:20.268Z,2928.00
2019-06-07T11:12:20.255Z,2952.00
2019-06-07T11:13:20.251Z,2936.00
2019-06-07T11:14:20.247Z,2936.00
2019-06-07T11:15:20.220Z,3004.00
2019-06-07T11:16:20.224Z,2948.00
2019-06-07T11:17:20.200Z,2944.00
2019-06-07T11:18:20.192Z,2960.00
2019-06-07T11:19:20.175Z,2884.00
2019-06-07T11:20:20.204Z,2948.00
2019-06-07T11:21:20.169Z,2924.00
2019-06-07T11:22:20.156Z,2916.00
2019-06-07T11:23:20.135Z,2956.00
2019-06-07T11:24:24.537Z,2936.00
2019-06-07T11:25:20.124Z,2960.00
2019-06-07T11:26:20.232Z,2960.00
2019-06-07T11:27:20.107Z,2952.00
2019-06-07T11:28:20.147Z,2992.00
2019-06-07T11:29:20.069Z,2972.00
2019-06-07T11:30:20.103Z,2984.00
2019-06-07T11:31:20.048Z,3008.00
2019-06-07T11:32:20.117Z,3012.00
2019-06-07T11:33:20.035Z,3032.00
2019-06-07T11:34:20.072Z,3044.00
2019-06-07T11:35:20.039Z,3076.00
2019-06-07T11:36:20.007Z,2488.00
2019-06-07T11:37:19.991Z,3080.00
2019-06-07T11:38:20.008Z,3092.00
2019-06-07T11:39:19.964Z,2636.00
2019-06-07T11:40:35.015Z,2660.00
2019-06-07T11:41:20.939Z,3160.00
2019-06-07T11:42:20.188Z,3124.00
2019-06-07T11:43:19.936Z,3136.00
2019-06-07T11:44:19.931Z,3216.00
2019-06-07T11:45:19.895Z,3156.00
2019-06-07T11:46:19.892Z,2596.00
2019-06-07T11:47:19.876Z,3220.00
2019-06-07T11:48:19.863Z,3120.00
2019-06-07T11:49:22.020Z,3004.00
2019-06-07T11:50:19.847Z,2088.00
2019-06-07T11:51:19.841Z,3200.00
2019-06-07T11:52:19.820Z,3180.00
2019-06-07T11:53:20.134Z,3188.00
2019-06-07T11:54:20.608Z,3196.00
2019-06-07T11:55:19.809Z,3188.00
2019-06-07T11:56:19.779Z,3160.00
2019-06-07T11:57:19.759Z,3164.00
2019-06-07T11:58:21.930Z,3164.00
2019-06-07T11:59:19.761Z,3204.00
2019-06-07T12:00:19.734Z,3204.00
2019-06-07T12:01:19.723Z,3224.00
2019-06-07T12:02:19.720Z,3236.00
2019-06-07T12:03:19.696Z,3220.00
2019-06-07T12:04:32.369Z,3232.00
2019-06-07T12:05:20.695Z,3260.00
2019-06-07T12:06:19.663Z,3240.00
2019-06-07T12:07:19.981Z,3296.00
2019-06-07T12:08:19.655Z,3240.00
2019-06-07T12:09:19.635Z,3264.00
2019-06-07T12:10:22.806Z,3276.00
2019-06-07T12:11:19.625Z,3280.00
2019-06-07T12:12:20.405Z,3296.00
2019-06-07T12:13:19.591Z,3308.00
2019-06-07T12:14:19.571Z,3328.00
2019-06-07T12:15:19.584Z,3352.00
2019-06-07T12:16:19.576Z,3352.00
2019-06-07T12:17:19.670Z,3408.00
2019-06-07T12:18:19.808Z,3440.00
2019-06-07T12:19:19.866Z,3436.00
2019-06-07T12:20:21.046Z,3472.00
2019-06-07T12:21:19.929Z,3548.00
2019-06-07T12:22:20.032Z,3604.00
2019-06-07T12:23:20.161Z,3656.00
2019-06-07T12:24:21.132Z,3676.00
2019-06-07T12:25:24.416Z,3700.00
2019-06-07T12:26:20.755Z,3768.00
2019-06-07T12:27:20.726Z,3752.00
2019-06-07T12:28:19.427Z,3640.00
2019-06-07T12:29:19.429Z,3684.00
2019-06-07T12:30:26.087Z,3624.00
2019-06-07T12:31:21.188Z,3620.00
2019-06-07T12:32:19.600Z,1988.00
2019-06-07T12:33:19.741Z,3776.00
2019-06-07T12:34:19.534Z,3540.00
2019-06-07T12:35:20.002Z,2064.00
2019-06-07T12:36:19.926Z,2224.00
2019-06-07T12:37:22.817Z,2404.00